sensor_id;sensor_type;location;lat;lon;timestamp;pressure;altitude;pressure_sealevel;temperature;humidity
48778;BME280;34578;0.000;0.000;2023-05-23T00:05:00;96571.88;;;17.93;64.81
48778;BME280;34578;0.000;0.000;2023-05-23T00:10:03;96582.00;;;18.05;70.31
48778;BME280;34578;0.000;0.000;2023-05-23T00:15:04;96582.00;;;18.06;67.01
48778;BME280;34578;0.000;0.000;2023-05-23T00:20:07;96582.84;;;17.95;62.71
48778;BME280;34578;0.000;0.000;2023-05-23T00:25:11;96576.97;;;17.90;62.01
48778;BME280;34578;0.000;0.000;2023-05-23T00:30:11;96582.88;;;17.87;61.73
48778;BME280;34578;0.000;0.000;2023-05-23T00:35:12;96572.75;;;17.87;62.02
48778;BME280;34578;0.000;0.000;2023-05-23T00:40:12;96589.63;;;17.84;61.80
48778;BME280;34578;0.000;0.000;2023-05-23T00:45:13;96580.31;;;17.86;61.50
48778;BME280;34578;0.000;0.000;2023-05-23T00:50:14;96580.34;;;17.83;61.58
48778;BME280;34578;0.000;0.000;2023-05-23T00:55:15;96576.09;;;17.83;61.43
48778;BME280;34578;0.000;0.000;2023-05-23T01:00:16;96582.00;;;17.82;61.56
48778;BME280;34578;0.000;0.000;2023-05-23T01:05:19;96582.00;;;17.81;61.27
48778;BME280;34578;0.000;0.000;2023-05-23T01:10:27;96591.31;;;17.91;64.82
48778;BME280;34578;0.000;0.000;2023-05-23T01:15:57;96592.13;;;18.05;71.06
48778;BME280;34578;0.000;0.000;2023-05-23T01:21:17;96583.69;;;18.03;66.01
48778;BME280;34578;0.000;0.000;2023-05-23T01:26:40;96576.09;;;17.92;62.81
48778;BME280;34578;0.000;0.000;2023-05-23T01:31:49;96588.75;;;17.88;62.18
48778;BME280;34578;0.000;0.000;2023-05-23T01:36:54;96578.63;;;17.83;61.84
48778;BME280;34578;0.000;0.000;2023-05-23T01:41:55;96583.69;;;17.85;61.75
48778;BME280;34578;0.000;0.000;2023-05-23T01:46:55;96583.72;;;17.82;61.85
48778;BME280;34578;0.000;0.000;2023-05-23T01:51:58;96583.72;;;17.82;62.00
48778;BME280;34578;0.000;0.000;2023-05-23T01:57:00;96584.53;;;17.81;61.70
48778;BME280;34578;0.000;0.000;2023-05-23T02:02:00;96581.16;;;17.80;61.54
48778;BME280;34578;0.000;0.000;2023-05-23T02:07:01;96585.38;;;17.80;61.53
48778;BME280;34578;0.000;0.000;2023-05-23T02:12:01;96592.16;;;17.79;61.54
48778;BME280;34578;0.000;0.000;2023-05-23T02:17:02;96589.59;;;17.91;65.01
48778;BME280;34578;0.000;0.000;2023-05-23T02:22:03;96584.56;;;18.03;70.11
48778;BME280;34578;0.000;0.000;2023-05-23T02:27:04;96580.31;;;18.04;67.35
48778;BME280;34578;0.000;0.000;2023-05-23T02:32:05;96574.41;;;17.93;63.30
48778;BME280;34578;0.000;0.000;2023-05-23T02:37:05;96573.56;;;17.88;62.27
48778;BME280;34578;0.000;0.000;2023-05-23T02:42:06;96587.91;;;17.84;61.86
48778;BME280;34578;0.000;0.000;2023-05-23T02:47:07;96590.47;;;17.83;61.95
48778;BME280;34578;0.000;0.000;2023-05-23T02:52:07;96594.69;;;17.79;61.68
48778;BME280;34578;0.000;0.000;2023-05-23T02:57:08;96592.13;;;17.81;61.70
48778;BME280;34578;0.000;0.000;2023-05-23T03:02:11;96595.50;;;17.80;61.47
48778;BME280;34578;0.000;0.000;2023-05-23T03:07:12;96591.31;;;17.77;61.42
48778;BME280;34578;0.000;0.000;2023-05-23T03:12:14;96596.34;;;17.79;61.51
48778;BME280;34578;0.000;0.000;2023-05-23T03:17:14;96583.72;;;17.77;61.21
48778;BME280;34578;0.000;0.000;2023-05-23T03:22:15;96587.09;;;17.85;64.84
48778;BME280;34578;0.000;0.000;2023-05-23T03:27:15;96585.41;;;18.01;69.11
48778;BME280;34578;0.000;0.000;2023-05-23T03:32:16;96586.25;;;18.04;69.08
48778;BME280;34578;0.000;0.000;2023-05-23T03:37:16;96579.50;;;17.94;64.39
48778;BME280;34578;0.000;0.000;2023-05-23T03:42:17;96592.13;;;17.87;62.07
48778;BME280;34578;0.000;0.000;2023-05-23T03:47:18;96596.34;;;17.83;61.86
48778;BME280;34578;0.000;0.000;2023-05-23T03:52:20;96587.91;;;17.77;61.73
48778;BME280;34578;0.000;0.000;2023-05-23T03:57:20;96587.91;;;17.80;61.90
48778;BME280;34578;0.000;0.000;2023-05-23T04:02:23;96591.28;;;17.79;61.81
48778;BME280;34578;0.000;0.000;2023-05-23T04:07:24;96591.31;;;17.77;61.82
48778;BME280;34578;0.000;0.000;2023-05-23T04:12:26;96600.56;;;17.80;61.65
48778;BME280;34578;0.000;0.000;2023-05-23T04:17:27;96610.69;;;17.80;61.45
48778;BME280;34578;0.000;0.000;2023-05-23T04:22:29;96615.75;;;17.80;61.15
48778;BME280;34578;0.000;0.000;2023-05-23T04:27:30;96621.69;;;17.83;63.89
48778;BME280;34578;0.000;0.000;2023-05-23T04:32:30;96614.09;;;18.00;69.05
48778;BME280;34578;0.000;0.000;2023-05-23T04:37:31;96605.66;;;18.05;68.90
48778;BME280;34578;0.000;0.000;2023-05-23T04:42:32;96619.16;;;17.97;63.78
48778;BME280;34578;0.000;0.000;2023-05-23T04:47:39;96632.69;;;17.90;62.08
48778;BME280;34578;0.000;0.000;2023-05-23T04:52:43;96634.34;;;17.85;63.75
48778;BME280;34578;0.000;0.000;2023-05-23T04:57:43;96637.72;;;17.84;62.46
48778;BME280;34578;0.000;0.000;2023-05-23T05:02:45;96651.22;;;17.72;68.26
48778;BME280;34578;0.000;0.000;2023-05-23T05:07:46;96647.84;;;17.78;62.80
48778;BME280;34578;0.000;0.000;2023-05-23T05:12:46;96629.28;;;17.76;62.38
48778;BME280;34578;0.000;0.000;2023-05-23T05:17:51;96627.59;;;17.78;62.05
48778;BME280;34578;0.000;0.000;2023-05-23T05:22:56;96628.44;;;17.77;61.86
48778;BME280;34578;0.000;0.000;2023-05-23T05:27:59;96629.28;;;17.74;62.07
48778;BME280;34578;0.000;0.000;2023-05-23T05:33:04;96631.81;;;17.85;68.18
48778;BME280;34578;0.000;0.000;2023-05-23T05:38:06;96626.78;;;17.95;70.40
48778;BME280;34578;0.000;0.000;2023-05-23T05:43:07;96641.13;;;18.04;69.99
48778;BME280;34578;0.000;0.000;2023-05-23T05:48:09;96641.09;;;17.95;65.00
48778;BME280;34578;0.000;0.000;2023-05-23T05:53:11;96645.31;;;17.87;62.65
48778;BME280;34578;0.000;0.000;2023-05-23T05:58:12;96647.88;;;17.84;62.13
48778;BME280;34578;0.000;0.000;2023-05-23T06:03:26;96647.84;;;17.81;62.18
48778;BME280;34578;0.000;0.000;2023-05-23T06:08:29;96663.03;;;17.81;62.16
48778;BME280;34578;0.000;0.000;2023-05-23T06:13:30;96668.94;;;17.80;62.09
48778;BME280;34578;0.000;0.000;2023-05-23T06:18:30;96670.63;;;17.76;62.21
48778;BME280;34578;0.000;0.000;2023-05-23T06:23:31;96668.94;;;17.77;62.07
48778;BME280;34578;0.000;0.000;2023-05-23T06:28:32;96671.47;;;17.77;61.70
48778;BME280;34578;0.000;0.000;2023-05-23T06:33:32;96676.53;;;17.77;61.70
48778;BME280;34578;0.000;0.000;2023-05-23T06:38:32;96677.41;;;17.80;64.45
48778;BME280;34578;0.000;0.000;2023-05-23T06:43:33;96668.97;;;17.95;69.03
48778;BME280;34578;0.000;0.000;2023-05-23T06:48:46;96678.25;;;18.05;69.67
48778;BME280;34578;0.000;0.000;2023-05-23T06:53:47;96679.13;;;17.98;64.14
48778;BME280;34578;0.000;0.000;2023-05-23T06:58:47;96689.22;;;17.87;62.30
48778;BME280;34578;0.000;0.000;2023-05-23T07:03:48;96681.63;;;17.83;62.14
48778;BME280;34578;0.000;0.000;2023-05-23T07:08:49;96690.88;;;17.81;62.04
48778;BME280;34578;0.000;0.000;2023-05-23T07:13:49;96688.38;;;17.79;61.90
48778;BME280;34578;0.000;0.000;2023-05-23T07:19:01;96682.44;;;17.79;62.00
48778;BME280;34578;0.000;0.000;2023-05-23T07:24:09;96695.13;;;17.76;61.33
48778;BME280;34578;0.000;0.000;2023-05-23T07:29:10;96691.75;;;17.77;61.81
48778;BME280;34578;0.000;0.000;2023-05-23T07:34:11;96693.41;;;17.76;61.77
48778;BME280;34578;0.000;0.000;2023-05-23T07:39:21;96691.75;;;17.77;61.57
48778;BME280;34578;0.000;0.000;2023-05-23T07:44:24;96693.44;;;17.75;62.08
48778;BME280;34578;0.000;0.000;2023-05-23T07:49:25;96701.94;;;17.98;67.07
48778;BME280;34578;0.000;0.000;2023-05-23T07:54:27;96692.63;;;18.06;69.00
48778;BME280;34578;0.000;0.000;2023-05-23T07:59:31;96682.50;;;18.00;64.20
48778;BME280;34578;0.000;0.000;2023-05-23T08:04:32;96693.47;;;17.90;62.41
48778;BME280;34578;0.000;0.000;2023-05-23T08:09:34;96688.38;;;17.84;61.59
48778;BME280;34578;0.000;0.000;2023-05-23T08:14:35;96683.28;;;17.81;62.02
48778;BME280;34578;0.000;0.000;2023-05-23T08:19:47;96701.00;;;17.81;62.02
48778;BME280;34578;0.000;0.000;2023-05-23T08:24:48;96701.03;;;17.79;61.79
48778;BME280;34578;0.000;0.000;2023-05-23T08:29:49;96700.19;;;17.79;61.79
48778;BME280;34578;0.000;0.000;2023-05-23T08:34:50;96702.72;;;17.79;61.92
48778;BME280;34578;0.000;0.000;2023-05-23T08:39:50;96706.09;;;17.78;61.83
48778;BME280;34578;0.000;0.000;2023-05-23T08:45:17;96710.31;;;17.79;61.77
48778;BME280;34578;0.000;0.000;2023-05-23T08:50:18;96712.84;;;17.79;62.12
48778;BME280;34578;0.000;0.000;2023-05-23T08:55:23;96710.34;;;17.97;64.35
48778;BME280;34578;0.000;0.000;2023-05-23T09:00:26;96716.28;;;18.08;68.22
48778;BME280;34578;0.000;0.000;2023-05-23T09:05:28;96716.28;;;18.02;64.69
48778;BME280;34578;0.000;0.000;2023-05-23T09:10:29;96717.09;;;17.92;62.86
48778;BME280;34578;0.000;0.000;2023-05-23T09:15:30;96725.53;;;17.86;61.91
48778;BME280;34578;0.000;0.000;2023-05-23T09:20:31;96721.28;;;17.82;62.03
48778;BME280;34578;0.000;0.000;2023-05-23T09:25:45;96720.44;;;17.79;62.11
48778;BME280;34578;0.000;0.000;2023-05-23T09:30:46;96723.81;;;17.81;62.13
48778;BME280;34578;0.000;0.000;2023-05-23T09:35:46;96728.03;;;17.80;62.08
48778;BME280;34578;0.000;0.000;2023-05-23T09:40:49;96723.81;;;17.81;62.34
48778;BME280;34578;0.000;0.000;2023-05-23T09:45:52;96727.19;;;17.80;62.22
48778;BME280;34578;0.000;0.000;2023-05-23T09:50:52;96723.81;;;17.81;62.69
48778;BME280;34578;0.000;0.000;2023-05-23T09:55:54;96728.03;;;17.79;62.28
48778;BME280;34578;0.000;0.000;2023-05-23T10:00:59;96728.09;;;17.98;64.68
48778;BME280;34578;0.000;0.000;2023-05-23T10:06:41;96727.25;;;18.10;67.65
48778;BME280;34578;0.000;0.000;2023-05-23T10:17:17;96721.34;;;17.99;61.57
48778;BME280;34578;0.000;0.000;2023-05-23T10:22:19;96727.25;;;18.01;61.56
48778;BME280;34578;0.000;0.000;2023-05-23T10:27:20;96717.13;;;18.01;61.69
48778;BME280;34578;0.000;0.000;2023-05-23T10:32:20;96717.13;;;18.01;61.57
48778;BME280;34578;0.000;0.000;2023-05-23T10:48:33;96709.50;;;18.01;61.71
48778;BME280;34578;0.000;0.000;2023-05-23T10:53:41;96701.06;;;18.02;61.63
48778;BME280;34578;0.000;0.000;2023-05-23T10:58:42;96696.00;;;18.00;61.44
48778;BME280;34578;0.000;0.000;2023-05-23T11:08:46;96689.28;;;18.16;66.11
48778;BME280;34578;0.000;0.000;2023-05-23T11:13:57;96695.19;;;18.18;66.72
48778;BME280;34578;0.000;0.000;2023-05-23T11:24:18;96690.09;;;18.03;61.61
48778;BME280;34578;0.000;0.000;2023-05-23T11:29:19;96698.53;;;18.02;61.59
48778;BME280;34578;0.000;0.000;2023-05-23T11:34:19;96696.84;;;17.98;61.58
48778;BME280;34578;0.000;0.000;2023-05-23T11:39:21;96700.22;;;18.00;61.40
48778;BME280;34578;0.000;0.000;2023-05-23T11:44:22;96703.59;;;17.99;61.58
48778;BME280;34578;0.000;0.000;2023-05-23T11:49:22;96699.38;;;17.99;61.80
48778;BME280;34578;0.000;0.000;2023-05-23T11:54:24;96698.53;;;17.96;61.56
48778;BME280;34578;0.000;0.000;2023-05-23T11:59:26;96699.38;;;17.96;61.49
48778;BME280;34578;0.000;0.000;2023-05-23T12:04:27;96698.53;;;17.97;61.52
48778;BME280;34578;0.000;0.000;2023-05-23T12:09:27;96695.16;;;18.01;64.72
48778;BME280;34578;0.000;0.000;2023-05-23T12:14:28;96690.09;;;18.16;66.07
48778;BME280;34578;0.000;0.000;2023-05-23T12:19:29;96684.19;;;18.22;64.82
48778;BME280;34578;0.000;0.000;2023-05-23T12:24:30;96692.63;;;18.12;61.96
48778;BME280;34578;0.000;0.000;2023-05-23T12:29:34;96681.66;;;18.07;61.56
48778;BME280;34578;0.000;0.000;2023-05-23T12:34:40;96677.44;;;18.04;61.82
48778;BME280;34578;0.000;0.000;2023-05-23T12:39:42;96672.34;;;18.01;62.08
48778;BME280;34578;0.000;0.000;2023-05-23T12:44:43;96685.84;;;18.00;62.38
48778;BME280;34578;0.000;0.000;2023-05-23T12:49:45;96685.03;;;18.00;62.01
48778;BME280;34578;0.000;0.000;2023-05-23T12:54:46;96696.00;;;17.97;62.05
48778;BME280;34578;0.000;0.000;2023-05-23T12:59:46;96683.34;;;17.97;61.82
48778;BME280;34578;0.000;0.000;2023-05-23T13:04:46;96679.94;;;17.97;61.74
48778;BME280;34578;0.000;0.000;2023-05-23T13:09:47;96681.66;;;17.98;61.78
48778;BME280;34578;0.000;0.000;2023-05-23T13:14:48;96674.06;;;17.98;62.25
48778;BME280;34578;0.000;0.000;2023-05-23T13:19:48;96671.53;;;18.16;64.84
48778;BME280;34578;0.000;0.000;2023-05-23T13:24:48;96669.84;;;18.24;65.18
48778;BME280;34578;0.000;0.000;2023-05-23T13:29:49;96672.38;;;18.13;62.46
48778;BME280;34578;0.000;0.000;2023-05-23T13:34:49;96669.81;;;18.06;61.96
48778;BME280;34578;0.000;0.000;2023-05-23T13:39:50;96668.13;;;18.02;61.98
48778;BME280;34578;0.000;0.000;2023-05-23T13:44:50;96670.66;;;18.00;61.83
48778;BME280;34578;0.000;0.000;2023-05-23T13:49:50;96666.44;;;17.99;62.08
48778;BME280;34578;0.000;0.000;2023-05-23T13:54:51;96657.16;;;17.97;62.23
48778;BME280;34578;0.000;0.000;2023-05-23T13:59:51;96649.56;;;17.94;61.85
48778;BME280;34578;0.000;0.000;2023-05-23T14:04:51;96656.34;;;17.98;61.96
48778;BME280;34578;0.000;0.000;2023-05-23T14:09:52;96651.25;;;17.98;62.04
48778;BME280;34578;0.000;0.000;2023-05-23T14:14:52;96649.53;;;17.97;62.16
48778;BME280;34578;0.000;0.000;2023-05-23T14:19:53;96640.28;;;17.93;62.21
48778;BME280;34578;0.000;0.000;2023-05-23T14:24:53;96656.34;;;18.16;65.96
48778;BME280;34578;0.000;0.000;2023-05-23T14:29:56;96649.56;;;18.21;66.02
48778;BME280;34578;0.000;0.000;2023-05-23T14:34:57;96652.94;;;18.14;63.08
48778;BME280;34578;0.000;0.000;2023-05-23T14:39:57;96657.16;;;18.09;62.03
48778;BME280;34578;0.000;0.000;2023-05-23T14:44:57;96649.56;;;18.03;61.89
48778;BME280;34578;0.000;0.000;2023-05-23T14:49:58;96641.13;;;17.99;62.43
48778;BME280;34578;0.000;0.000;2023-05-23T14:54:58;96653.78;;;17.99;62.09
48778;BME280;34578;0.000;0.000;2023-05-23T15:00:00;96647.88;;;17.99;61.93
48778;BME280;34578;0.000;0.000;2023-05-23T15:05:04;96649.53;;;17.97;62.36
48778;BME280;34578;0.000;0.000;2023-05-23T15:10:05;96652.09;;;17.95;61.88
48778;BME280;34578;0.000;0.000;2023-05-23T15:15:07;96644.47;;;17.97;62.25
48778;BME280;34578;0.000;0.000;2023-05-23T15:20:07;96647.00;;;17.97;61.77
48778;BME280;34578;0.000;0.000;2023-05-23T15:25:09;96646.19;;;17.98;62.40
48778;BME280;34578;0.000;0.000;2023-05-23T15:30:10;96640.28;;;18.15;64.63
48778;BME280;34578;0.000;0.000;2023-05-23T15:35:10;96641.09;;;18.22;65.33
48778;BME280;34578;0.000;0.000;2023-05-23T15:40:11;96651.25;;;18.19;63.67
48778;BME280;34578;0.000;0.000;2023-05-23T15:45:11;96652.94;;;18.05;62.06
48778;BME280;34578;0.000;0.000;2023-05-23T15:50:12;96668.97;;;18.04;62.02
48778;BME280;34578;0.000;0.000;2023-05-23T15:55:12;96678.28;;;17.99;62.13
48778;BME280;34578;0.000;0.000;2023-05-23T16:00:13;96669.81;;;17.98;63.84
48778;BME280;34578;0.000;0.000;2023-05-23T16:05:13;96662.22;;;17.97;62.83
48778;BME280;34578;0.000;0.000;2023-05-23T16:10:14;96663.09;;;17.99;62.09
48778;BME280;34578;0.000;0.000;2023-05-23T16:15:14;96666.47;;;17.98;61.83
48778;BME280;34578;0.000;0.000;2023-05-23T16:20:14;96666.47;;;17.98;61.78
48778;BME280;34578;0.000;0.000;2023-05-23T16:25:15;96662.22;;;17.97;61.74
48778;BME280;34578;0.000;0.000;2023-05-23T16:30:15;96666.47;;;17.98;61.78
48778;BME280;34578;0.000;0.000;2023-05-23T16:35:15;96665.63;;;18.15;65.06
48778;BME280;34578;0.000;0.000;2023-05-23T16:40:16;96658.00;;;18.26;65.84
48778;BME280;34578;0.000;0.000;2023-05-23T16:45:16;96658.00;;;18.20;64.67
48778;BME280;34578;0.000;0.000;2023-05-23T16:50:17;96658.00;;;18.11;62.40
48778;BME280;34578;0.000;0.000;2023-05-23T16:55:17;96663.94;;;18.07;62.20
48778;BME280;34578;0.000;0.000;2023-05-23T17:00:18;96663.91;;;18.13;69.65
48778;BME280;34578;0.000;0.000;2023-05-23T17:05:19;96665.63;;;18.03;62.67
48778;BME280;34578;0.000;0.000;2023-05-23T17:10:20;96659.69;;;18.03;62.35
48778;BME280;34578;0.000;0.000;2023-05-23T17:15:21;96664.78;;;18.00;62.24
48778;BME280;34578;0.000;0.000;2023-05-23T17:20:24;96671.53;;;18.01;63.16
48778;BME280;34578;0.000;0.000;2023-05-23T17:25:26;96667.31;;;18.00;62.14
48778;BME280;34578;0.000;0.000;2023-05-23T17:30:26;96666.47;;;17.98;61.88
48778;BME280;34578;0.000;0.000;2023-05-23T17:35:27;96666.47;;;17.98;62.00
48778;BME280;34578;0.000;0.000;2023-05-23T17:40:27;96669.00;;;18.16;65.09
48778;BME280;34578;0.000;0.000;2023-05-23T17:45:28;96666.44;;;18.26;66.35
48778;BME280;34578;0.000;0.000;2023-05-23T17:50:29;96669.81;;;18.21;63.95
48778;BME280;34578;0.000;0.000;2023-05-23T17:55:29;96671.53;;;18.10;62.21
48778;BME280;34578;0.000;0.000;2023-05-23T18:00:29;96674.06;;;18.05;62.22
48778;BME280;34578;0.000;0.000;2023-05-23T18:05:30;96676.59;;;18.01;62.25
48778;BME280;34578;0.000;0.000;2023-05-23T18:10:31;96681.66;;;18.01;62.08
48778;BME280;34578;0.000;0.000;2023-05-23T18:15:31;96689.25;;;17.99;62.23
48778;BME280;34578;0.000;0.000;2023-05-23T18:20:32;96698.53;;;17.99;62.76
48778;BME280;34578;0.000;0.000;2023-05-23T18:25:32;96698.53;;;17.99;62.04
48778;BME280;34578;0.000;0.000;2023-05-23T18:30:33;96705.28;;;17.97;62.00
48778;BME280;34578;0.000;0.000;2023-05-23T18:35:33;96701.91;;;17.95;61.81
48778;BME280;34578;0.000;0.000;2023-05-23T18:40:33;96705.28;;;17.97;61.86
48778;BME280;34578;0.000;0.000;2023-05-23T18:45:34;96701.94;;;18.16;64.21
48778;BME280;34578;0.000;0.000;2023-05-23T18:50:36;96709.59;;;18.29;65.26
48778;BME280;34578;0.000;0.000;2023-05-23T18:55:37;96714.59;;;18.26;63.98
48778;BME280;34578;0.000;0.000;2023-05-23T19:00:38;96716.28;;;18.12;62.21
48778;BME280;34578;0.000;0.000;2023-05-23T19:05:38;96715.41;;;18.06;61.97
48778;BME280;34578;0.000;0.000;2023-05-23T19:10:38;96728.06;;;18.01;61.93
48778;BME280;34578;0.000;0.000;2023-05-23T19:15:39;96717.06;;;17.89;61.74
48778;BME280;34578;0.000;0.000;2023-05-23T19:20:39;96739.91;;;17.99;61.90
48778;BME280;34578;0.000;0.000;2023-05-23T19:25:40;96748.34;;;17.98;61.85
48778;BME280;34578;0.000;0.000;2023-05-23T19:30:42;96752.59;;;17.98;61.88
48778;BME280;34578;0.000;0.000;2023-05-23T19:35:43;96755.94;;;17.97;61.60
48778;BME280;34578;0.000;0.000;2023-05-23T19:40:45;96755.09;;;17.95;61.34
48778;BME280;34578;0.000;0.000;2023-05-23T19:45:45;96761.00;;;17.97;61.64
48778;BME280;34578;0.000;0.000;2023-05-23T19:50:45;96763.59;;;18.13;64.25
48778;BME280;34578;0.000;0.000;2023-05-23T19:55:46;96771.22;;;18.24;64.87
48778;BME280;34578;0.000;0.000;2023-05-23T20:00:46;96773.72;;;18.25;64.01
48778;BME280;34578;0.000;0.000;2023-05-23T20:05:47;96777.94;;;18.13;62.01
48778;BME280;34578;0.000;0.000;2023-05-23T20:10:47;96789.75;;;18.09;62.13
48778;BME280;34578;0.000;0.000;2023-05-23T20:15:48;96796.47;;;18.06;61.96
48778;BME280;34578;0.000;0.000;2023-05-23T20:20:48;96799.88;;;18.05;61.78
48778;BME280;34578;0.000;0.000;2023-05-23T20:25:49;96811.69;;;18.03;61.81
48778;BME280;34578;0.000;0.000;2023-05-23T20:30:50;96809.13;;;18.01;61.80
48778;BME280;34578;0.000;0.000;2023-05-23T20:35:50;96805.75;;;17.99;61.74
48778;BME280;34578;0.000;0.000;2023-05-23T20:40:51;96808.31;;;17.98;61.81
48778;BME280;34578;0.000;0.000;2023-05-23T20:45:51;96816.72;;;17.97;61.48
48778;BME280;34578;0.000;0.000;2023-05-23T20:50:52;96819.25;;;17.97;61.79
48778;BME280;34578;0.000;0.000;2023-05-23T20:55:53;96818.47;;;18.13;64.35
48778;BME280;34578;0.000;0.000;2023-05-23T21:00:53;96827.81;;;18.26;64.85
48778;BME280;34578;0.000;0.000;2023-05-23T21:05:54;96828.66;;;18.25;64.59
48778;BME280;34578;0.000;0.000;2023-05-23T21:10:55;96827.75;;;18.14;61.72
48778;BME280;34578;0.000;0.000;2023-05-23T21:15:55;96831.13;;;18.10;61.89
48778;BME280;34578;0.000;0.000;2023-05-23T21:20:58;96829.44;;;18.07;61.59
48778;BME280;34578;0.000;0.000;2023-05-23T21:25:58;96833.66;;;18.05;61.61
48778;BME280;34578;0.000;0.000;2023-05-23T21:30:58;96828.59;;;17.98;61.84
48778;BME280;34578;0.000;0.000;2023-05-23T21:35:59;96835.31;;;18.00;61.51
48778;BME280;34578;0.000;0.000;2023-05-23T21:41:00;96843.78;;;18.01;61.43
48778;BME280;34578;0.000;0.000;2023-05-23T21:46:00;96846.31;;;18.01;61.54
48778;BME280;34578;0.000;0.000;2023-05-23T21:51:00;96842.94;;;17.99;61.56
48778;BME280;34578;0.000;0.000;2023-05-23T21:56:01;96843.78;;;17.98;61.41
48778;BME280;34578;0.000;0.000;2023-05-23T22:01:01;96839.59;;;18.13;63.81
48778;BME280;34578;0.000;0.000;2023-05-23T22:11:45;96837.09;;;18.24;63.36
48778;BME280;34578;0.000;0.000;2023-05-23T22:16:46;96832.84;;;18.08;62.13
48778;BME280;34578;0.000;0.000;2023-05-23T22:21:49;96848.84;;;18.04;61.50
48778;BME280;34578;0.000;0.000;2023-05-23T22:26:49;96842.91;;;18.00;61.54
48778;BME280;34578;0.000;0.000;2023-05-23T22:31:49;96848.00;;;17.99;61.60
48778;BME280;34578;0.000;0.000;2023-05-23T22:36:50;96849.69;;;17.98;61.68
48778;BME280;34578;0.000;0.000;2023-05-23T22:41:51;96850.47;;;17.91;61.71
48778;BME280;34578;0.000;0.000;2023-05-23T22:46:51;96859.78;;;17.92;61.54
48778;BME280;34578;0.000;0.000;2023-05-23T22:51:51;96847.13;;;17.94;60.99
48778;BME280;34578;0.000;0.000;2023-05-23T22:56:52;96842.91;;;17.94;61.17
48778;BME280;34578;0.000;0.000;2023-05-23T23:01:52;96843.75;;;17.92;61.17
48778;BME280;34578;0.000;0.000;2023-05-23T23:06:53;96844.66;;;18.12;63.51
48778;BME280;34578;0.000;0.000;2023-05-23T23:11:53;96837.91;;;18.23;65.42
48778;BME280;34578;0.000;0.000;2023-05-23T23:16:55;96837.09;;;18.24;63.10
48778;BME280;34578;0.000;0.000;2023-05-23T23:21:57;96828.59;;;18.13;62.53
48778;BME280;34578;0.000;0.000;2023-05-23T23:26:57;96816.75;;;18.03;61.63
48778;BME280;34578;0.000;0.000;2023-05-23T23:31:57;96809.13;;;17.98;61.46
48778;BME280;34578;0.000;0.000;2023-05-23T23:36:58;96806.59;;;17.97;61.20
48778;BME280;34578;0.000;0.000;2023-05-23T23:41:59;96804.91;;;17.96;61.15
48778;BME280;34578;0.000;0.000;2023-05-23T23:46:59;96797.31;;;17.94;61.40
48778;BME280;34578;0.000;0.000;2023-05-23T23:52:00;96785.47;;;17.90;61.12
48778;BME280;34578;0.000;0.000;2023-05-23T23:57:00;96796.47;;;17.91;61.10
